PWSweather.com
Personal Weather Stations
Station Observations
SPARKSRC
St. Petersburg, FL 33716

St. Petersburg, FL 33716

Lat: 27.876101, Lon: -82.657194

Elevation: 13

Station Type: Zephyr PWS-1000TD

Latest ConditionsUpdated 8:10:02 AM EDT Thursday, Oct 30, 2014
Currently Today's Max Today's Min Today's Average
Temperature 72.3°F22.4°C 72.3°F22.4°C 69.3°F20.7°C 70.6°F21.4°C
Dew Point 72.1°F22.3°C 72.1°F22.3°C 69.0°F20.6°C 70.3°F21.3°C
Winds 0.7 mph N1.1 kmh N 3.1 mph ESE5.0 kmh ESE - 0.9 mph 1.4 kmh
Wind Gusts 3.1 mph5.0 kmh 4.5 mph7.2 kmh - -
Humidity 99% 99% 99% 99%
Pressure 29.92 in1013.2 mb 29.96 in1014.6 mb 29.90 in1012.5 mb -
Hour Temp Dew Point Humidity Winds Wind Gusts Pressure Precip Precip Rate Daily Precip Total
08:10 AM 72.3°F22.4°C 72.1°F22.3°C 99% 0.7 mph N1.1 kmh N 3.1 mph5.0 kmh 29.92 in1013.2 mb 0.00 in0.0 mm 0.00 in/hr0.0 mm/hr 0.00 in0.0 mm
08:05 AM 71.6°F22.0°C 71.3°F21.8°C 99% 1.6 mph N2.6 kmh N 2.2 mph3.5 kmh 29.91 in1012.9 mb 0.00 in0.0 mm 0.00 in/hr0.0 mm/hr 0.00 in0.0 mm
08:00 AM 71.6°F22.0°C 71.3°F21.8°C 99% 1.6 mph N2.6 kmh N 2.2 mph3.5 kmh 29.91 in1012.9 mb 0.00 in0.0 mm 0.00 in/hr0.0 mm/hr 0.00 in0.0 mm
07:55 AM 71.6°F22.0°C 71.3°F21.8°C 99% 0.7 mph N1.1 kmh N 3.1 mph5.0 kmh 29.92 in1013.2 mb 0.00 in0.0 mm 0.00 in/hr0.0 mm/hr 0.00 in0.0 mm
07:50 AM 71.4°F21.9°C 71.2°F21.8°C 99% 1.6 mph N2.6 kmh N 3.1 mph5.0 kmh 29.92 in1013.2 mb 0.00 in0.0 mm 0.00 in/hr0.0 mm/hr 0.00 in0.0 mm
07:45 AM 71.4°F21.9°C 71.2°F21.8°C 99% 0.7 mph N1.1 kmh N 2.2 mph3.5 kmh 29.92 in1013.2 mb 0.00 in0.0 mm 0.00 in/hr0.0 mm/hr 0.00 in0.0 mm
07:40 AM 71.2°F21.8°C 71.0°F21.7°C 99% 1.6 mph NE2.6 kmh NE 2.2 mph3.5 kmh 29.92 in1013.2 mb 0.00 in0.0 mm 0.00 in/hr0.0 mm/hr 0.00 in0.0 mm
07:35 AM 71.2°F21.8°C 71.0°F21.7°C 99% Calm Calm 2.2 mph3.5 kmh 29.92 in1013.2 mb 0.00 in0.0 mm 0.00 in/hr0.0 mm/hr 0.00 in0.0 mm
07:30 AM 71.2°F21.8°C 71.0°F21.7°C 99% Calm Calm 2.2 mph3.5 kmh 29.92 in1013.2 mb 0.00 in0.0 mm 0.00 in/hr0.0 mm/hr 0.00 in0.0 mm
07:25 AM 71.2°F21.8°C 71.0°F21.7°C 99% 0.7 mph NE1.1 kmh NE 2.2 mph3.5 kmh 29.91 in1012.9 mb 0.00 in0.0 mm 0.00 in/hr0.0 mm/hr 0.00 in0.0 mm
07:20 AM 71.4°F21.9°C 71.2°F21.8°C 99% 0.7 mph NNE1.1 kmh NNE 3.1 mph5.0 kmh 29.91 in1012.9 mb 0.00 in0.0 mm 0.00 in/hr0.0 mm/hr 0.00 in0.0 mm
07:15 AM 71.4°F21.9°C 71.2°F21.8°C 99% 1.6 mph NNE2.6 kmh NNE 3.1 mph5.0 kmh 29.91 in1012.9 mb 0.00 in0.0 mm 0.00 in/hr0.0 mm/hr 0.00 in0.0 mm
07:10 AM 71.2°F21.8°C 71.0°F21.7°C 99% 1.6 mph E2.6 kmh E 3.1 mph5.0 kmh 29.91 in1012.9 mb 0.00 in0.0 mm 0.00 in/hr0.0 mm/hr 0.00 in0.0 mm
07:05 AM 71.2°F21.8°C 71.0°F21.7°C 99% 0.7 mph ESE1.1 kmh ESE 3.1 mph5.0 kmh 29.91 in1012.9 mb 0.00 in0.0 mm 0.00 in/hr0.0 mm/hr 0.00 in0.0 mm
07:00 AM 71.2°F21.8°C 71.0°F21.7°C 99% 1.6 mph ESE2.6 kmh ESE 3.1 mph5.0 kmh 29.91 in1012.9 mb 0.00 in0.0 mm 0.00 in/hr0.0 mm/hr 0.00 in0.0 mm
06:55 AM 71.2°F21.8°C 71.0°F21.7°C 99% 0.7 mph ESE1.1 kmh ESE 3.1 mph5.0 kmh 29.91 in1012.9 mb 0.00 in0.0 mm 0.00 in/hr0.0 mm/hr 0.00 in0.0 mm
06:50 AM 71.2°F21.8°C 71.0°F21.7°C 99% 1.6 mph ESE2.6 kmh ESE 3.1 mph5.0 kmh 29.91 in1012.9 mb 0.00 in0.0 mm 0.00 in/hr0.0 mm/hr 0.00 in0.0 mm
06:45 AM 71.1°F21.7°C 70.8°F21.6°C 99% Calm Calm 0.7 mph1.1 kmh 29.91 in1012.9 mb 0.00 in0.0 mm 0.00 in/hr0.0 mm/hr 0.00 in0.0 mm
06:40 AM 71.1°F21.7°C 70.8°F21.6°C 99% Calm Calm 1.6 mph2.6 kmh 29.91 in1012.9 mb 0.00 in0.0 mm 0.00 in/hr0.0 mm/hr 0.00 in0.0 mm
06:35 AM 71.2°F21.8°C 71.0°F21.7°C 99% Calm Calm 2.2 mph3.5 kmh 29.91 in1012.9 mb 0.00 in0.0 mm 0.00 in/hr0.0 mm/hr 0.00 in0.0 mm
06:30 AM 71.1°F21.7°C 70.8°F21.6°C 99% 0.7 mph NE1.1 kmh NE 2.2 mph3.5 kmh 29.91 in1012.9 mb 0.00 in0.0 mm 0.00 in/hr0.0 mm/hr 0.00 in0.0 mm
06:25 AM 71.1°F21.7°C 70.8°F21.6°C 99% 0.7 mph NE1.1 kmh NE 3.1 mph5.0 kmh 29.91 in1012.9 mb 0.00 in0.0 mm 0.00 in/hr0.0 mm/hr 0.00 in0.0 mm
06:20 AM 71.1°F21.7°C 70.8°F21.6°C 99% 0.7 mph NE1.1 kmh NE 3.8 mph6.1 kmh 29.90 in1012.5 mb 0.00 in0.0 mm 0.00 in/hr0.0 mm/hr 0.00 in0.0 mm
06:15 AM 71.1°F21.7°C 70.8°F21.6°C 99% 1.6 mph NE2.6 kmh NE 3.8 mph6.1 kmh 29.90 in1012.5 mb 0.00 in0.0 mm 0.00 in/hr0.0 mm/hr 0.00 in0.0 mm
06:10 AM 70.9°F21.6°C 70.6°F21.4°C 99% 2.2 mph N3.5 kmh N 3.8 mph6.1 kmh 29.90 in1012.5 mb 0.00 in0.0 mm 0.00 in/hr0.0 mm/hr 0.00 in0.0 mm
06:05 AM 70.9°F21.6°C 70.6°F21.4°C 99% 1.6 mph N2.6 kmh N 2.2 mph3.5 kmh 29.91 in1012.9 mb 0.00 in0.0 mm 0.00 in/hr0.0 mm/hr 0.00 in0.0 mm
06:00 AM 70.9°F21.6°C 70.6°F21.4°C 99% 1.6 mph N2.6 kmh N 2.2 mph3.5 kmh 29.90 in1012.5 mb 0.00 in0.0 mm 0.00 in/hr0.0 mm/hr 0.00 in0.0 mm
05:55 AM 70.9°F21.6°C 70.6°F21.4°C 99% 0.7 mph N1.1 kmh N 2.2 mph3.5 kmh 29.91 in1012.9 mb 0.00 in0.0 mm 0.00 in/hr0.0 mm/hr 0.00 in0.0 mm
05:50 AM 71.1°F21.7°C 70.8°F21.6°C 99% 0.7 mph N1.1 kmh N 2.2 mph3.5 kmh 29.91 in1012.9 mb 0.00 in0.0 mm 0.00 in/hr0.0 mm/hr 0.00 in0.0 mm
05:45 AM 71.1°F21.7°C 70.8°F21.6°C 99% 0.7 mph NNW1.1 kmh NNW 2.2 mph3.5 kmh 29.90 in1012.5 mb 0.00 in0.0 mm 0.00 in/hr0.0 mm/hr 0.00 in0.0 mm
05:40 AM 71.1°F21.7°C 70.8°F21.6°C 99% Calm Calm 3.1 mph5.0 kmh 29.90 in1012.5 mb 0.00 in0.0 mm 0.00 in/hr0.0 mm/hr 0.00 in0.0 mm
05:35 AM 71.1°F21.7°C 70.8°F21.6°C 99% 1.6 mph N2.6 kmh N 3.1 mph5.0 kmh 29.90 in1012.5 mb 0.00 in0.0 mm 0.00 in/hr0.0 mm/hr 0.00 in0.0 mm
05:30 AM 71.1°F21.7°C 70.8°F21.6°C 99% 2.2 mph N3.5 kmh N 3.1 mph5.0 kmh 29.90 in1012.5 mb 0.00 in0.0 mm 0.00 in/hr0.0 mm/hr 0.00 in0.0 mm
05:25 AM 71.1°F21.7°C 70.8°F21.6°C 99% 1.6 mph NNW2.6 kmh NNW 3.1 mph5.0 kmh 29.90 in1012.5 mb 0.00 in0.0 mm 0.00 in/hr0.0 mm/hr 0.00 in0.0 mm
05:20 AM 71.1°F21.7°C 70.8°F21.6°C 99% 1.6 mph NW2.6 kmh NW 3.1 mph5.0 kmh 29.90 in1012.5 mb 0.00 in0.0 mm 0.00 in/hr0.0 mm/hr 0.00 in0.0 mm
05:15 AM 71.1°F21.7°C 70.8°F21.6°C 99% 1.6 mph WNW2.6 kmh WNW 3.1 mph5.0 kmh 29.90 in1012.5 mb 0.00 in0.0 mm 0.00 in/hr0.0 mm/hr 0.00 in0.0 mm
05:10 AM 71.1°F21.7°C 70.8°F21.6°C 99% Calm Calm 3.1 mph5.0 kmh 29.90 in1012.5 mb 0.00 in0.0 mm 0.00 in/hr0.0 mm/hr 0.00 in0.0 mm
05:05 AM 71.1°F21.7°C 70.8°F21.6°C 99% Calm Calm 3.1 mph5.0 kmh 29.91 in1012.9 mb 0.00 in0.0 mm 0.00 in/hr0.0 mm/hr 0.00 in0.0 mm
05:00 AM 71.1°F21.7°C 70.8°F21.6°C 99% 0.7 mph SE1.1 kmh SE 3.8 mph6.1 kmh 29.91 in1012.9 mb 0.00 in0.0 mm 0.00 in/hr0.0 mm/hr 0.00 in0.0 mm
04:55 AM 70.9°F21.6°C 70.6°F21.4°C 99% 1.6 mph SE2.6 kmh SE 3.8 mph6.1 kmh 29.90 in1012.5 mb 0.00 in0.0 mm 0.00 in/hr0.0 mm/hr 0.00 in0.0 mm
04:50 AM 70.7°F21.5°C 70.4°F21.3°C 99% 3.1 mph SE5.0 kmh SE 4.5 mph7.2 kmh 29.91 in1012.9 mb 0.00 in0.0 mm 0.00 in/hr0.0 mm/hr 0.00 in0.0 mm
04:45 AM 70.7°F21.5°C 70.4°F21.3°C 99% 3.1 mph ESE5.0 kmh ESE 4.5 mph7.2 kmh 29.90 in1012.5 mb 0.00 in0.0 mm 0.00 in/hr0.0 mm/hr 0.00 in0.0 mm
04:40 AM 70.5°F21.4°C 70.3°F21.3°C 99% 2.2 mph E3.5 kmh E 3.1 mph5.0 kmh 29.91 in1012.9 mb 0.00 in0.0 mm 0.00 in/hr0.0 mm/hr 0.00 in0.0 mm
04:35 AM 70.3°F21.3°C 70.1°F21.2°C 99% 1.6 mph ESE2.6 kmh ESE 3.1 mph5.0 kmh 29.90 in1012.5 mb 0.00 in0.0 mm 0.00 in/hr0.0 mm/hr 0.00 in0.0 mm
04:30 AM 70.3°F21.3°C 70.1°F21.2°C 99% 1.6 mph SE2.6 kmh SE 3.1 mph5.0 kmh 29.91 in1012.9 mb 0.00 in0.0 mm 0.00 in/hr0.0 mm/hr 0.00 in0.0 mm
04:25 AM 70.2°F21.2°C 69.9°F21.1°C 99% 1.6 mph SE2.6 kmh SE 3.1 mph5.0 kmh 29.91 in1012.9 mb 0.00 in0.0 mm 0.00 in/hr0.0 mm/hr 0.00 in0.0 mm
04:20 AM 70.0°F21.1°C 69.7°F20.9°C 99% Calm Calm 3.8 mph6.1 kmh 29.91 in1012.9 mb 0.00 in0.0 mm 0.00 in/hr0.0 mm/hr 0.00 in0.0 mm
04:15 AM 70.0°F21.1°C 69.7°F20.9°C 99% 0.7 mph SE1.1 kmh SE 3.8 mph6.1 kmh 29.91 in1012.9 mb 0.00 in0.0 mm 0.00 in/hr0.0 mm/hr 0.00 in0.0 mm
04:10 AM 70.0°F21.1°C 69.7°F20.9°C 99% 1.6 mph ESE2.6 kmh ESE 4.5 mph7.2 kmh 29.91 in1012.9 mb 0.00 in0.0 mm 0.00 in/hr0.0 mm/hr 0.00 in0.0 mm
04:05 AM 70.0°F21.1°C 69.7°F20.9°C 99% 1.6 mph ESE2.6 kmh ESE 4.5 mph7.2 kmh 29.91 in1012.9 mb 0.00 in0.0 mm 0.00 in/hr0.0 mm/hr 0.00 in0.0 mm
04:00 AM 70.0°F21.1°C 69.7°F20.9°C 99% 3.1 mph ESE5.0 kmh ESE 3.8 mph6.1 kmh 29.91 in1012.9 mb 0.00 in0.0 mm 0.00 in/hr0.0 mm/hr 0.00 in0.0 mm
03:55 AM 70.0°F21.1°C 69.7°F20.9°C 99% 2.2 mph ESE3.5 kmh ESE 3.8 mph6.1 kmh 29.91 in1012.9 mb 0.00 in0.0 mm 0.00 in/hr0.0 mm/hr 0.00 in0.0 mm
03:50 AM 70.0°F21.1°C 69.7°F20.9°C 99% 2.2 mph ESE3.5 kmh ESE 3.8 mph6.1 kmh 29.91 in1012.9 mb 0.00 in0.0 mm 0.00 in/hr0.0 mm/hr 0.00 in0.0 mm
03:45 AM 70.0°F21.1°C 69.7°F20.9°C 99% 1.6 mph SE2.6 kmh SE 4.5 mph7.2 kmh 29.91 in1012.9 mb 0.00 in0.0 mm 0.00 in/hr0.0 mm/hr 0.00 in0.0 mm
03:40 AM 69.8°F21.0°C 69.5°F20.8°C 99% 1.6 mph SE2.6 kmh SE 4.5 mph7.2 kmh 29.91 in1012.9 mb 0.00 in0.0 mm 0.00 in/hr0.0 mm/hr 0.00 in0.0 mm
03:35 AM 69.8°F21.0°C 69.5°F20.8°C 99% 3.1 mph SE5.0 kmh SE 4.5 mph7.2 kmh 29.91 in1012.9 mb 0.00 in0.0 mm 0.00 in/hr0.0 mm/hr 0.00 in0.0 mm
03:30 AM 69.8°F21.0°C 69.5°F20.8°C 99% 2.2 mph SE3.5 kmh SE 3.8 mph6.1 kmh 29.91 in1012.9 mb 0.00 in0.0 mm 0.00 in/hr0.0 mm/hr 0.00 in0.0 mm
03:25 AM 69.4°F20.8°C 69.2°F20.7°C 99% 2.2 mph SE3.5 kmh SE 3.8 mph6.1 kmh 29.91 in1012.9 mb 0.00 in0.0 mm 0.00 in/hr0.0 mm/hr 0.00 in0.0 mm
03:20 AM 69.6°F20.9°C 69.4°F20.8°C 99% 1.6 mph SE2.6 kmh SE 2.2 mph3.5 kmh 29.91 in1012.9 mb 0.00 in0.0 mm 0.00 in/hr0.0 mm/hr 0.00 in0.0 mm
03:15 AM 69.8°F21.0°C 69.5°F20.8°C 99% Calm Calm 0.7 mph1.1 kmh 29.91 in1012.9 mb 0.00 in0.0 mm 0.00 in/hr0.0 mm/hr 0.00 in0.0 mm
03:10 AM 70.2°F21.2°C 69.9°F21.1°C 99% Calm Calm 0.7 mph1.1 kmh 29.91 in1012.9 mb 0.00 in0.0 mm 0.00 in/hr0.0 mm/hr 0.00 in0.0 mm
03:05 AM 70.3°F21.3°C 70.1°F21.2°C 99% Calm Calm 1.6 mph2.6 kmh 29.91 in1012.9 mb 0.00 in0.0 mm 0.00 in/hr0.0 mm/hr 0.00 in0.0 mm
03:00 AM 70.3°F21.3°C 70.1°F21.2°C 99% Calm Calm 1.6 mph2.6 kmh 29.91 in1012.9 mb 0.00 in0.0 mm 0.00 in/hr0.0 mm/hr 0.00 in0.0 mm
02:55 AM 70.2°F21.2°C 69.9°F21.1°C 99% Calm Calm 1.6 mph2.6 kmh 29.91 in1012.9 mb 0.00 in0.0 mm 0.00 in/hr0.0 mm/hr 0.00 in0.0 mm
02:50 AM 70.2°F21.2°C 69.9°F21.1°C 99% 0.7 mph ENE1.1 kmh ENE 2.2 mph3.5 kmh 29.92 in1013.2 mb 0.00 in0.0 mm 0.00 in/hr0.0 mm/hr 0.00 in0.0 mm
02:45 AM 70.2°F21.2°C 69.9°F21.1°C 99% 0.7 mph E1.1 kmh E 3.1 mph5.0 kmh 29.92 in1013.2 mb 0.00 in0.0 mm 0.00 in/hr0.0 mm/hr 0.00 in0.0 mm
02:40 AM 70.2°F21.2°C 69.9°F21.1°C 99% 1.6 mph E2.6 kmh E 3.8 mph6.1 kmh 29.92 in1013.2 mb 0.00 in0.0 mm 0.00 in/hr0.0 mm/hr 0.00 in0.0 mm
02:35 AM 69.8°F21.0°C 69.5°F20.8°C 99% 1.6 mph S2.6 kmh S 3.8 mph6.1 kmh 29.92 in1013.2 mb 0.00 in0.0 mm 0.00 in/hr0.0 mm/hr 0.00 in0.0 mm
02:30 AM 69.6°F20.9°C 69.4°F20.8°C 99% 1.6 mph SW2.6 kmh SW 3.1 mph5.0 kmh 29.92 in1013.2 mb 0.00 in0.0 mm 0.00 in/hr0.0 mm/hr 0.00 in0.0 mm
02:25 AM 69.3°F20.7°C 69.0°F20.6°C 99% 1.6 mph SW2.6 kmh SW 3.1 mph5.0 kmh 29.92 in1013.2 mb 0.00 in0.0 mm 0.00 in/hr0.0 mm/hr 0.00 in0.0 mm
02:20 AM 69.4°F20.8°C 69.2°F20.7°C 99% 1.6 mph SW2.6 kmh SW 3.1 mph5.0 kmh 29.93 in1013.5 mb 0.00 in0.0 mm 0.00 in/hr0.0 mm/hr 0.00 in0.0 mm
02:15 AM 69.6°F20.9°C 69.4°F20.8°C 99% Calm Calm 0.7 mph1.1 kmh 29.93 in1013.5 mb 0.00 in0.0 mm 0.00 in/hr0.0 mm/hr 0.00 in0.0 mm
02:10 AM 69.6°F20.9°C 69.4°F20.8°C 99% Calm Calm 0.7 mph1.1 kmh 29.93 in1013.5 mb 0.00 in0.0 mm 0.00 in/hr0.0 mm/hr 0.00 in0.0 mm
02:05 AM 69.6°F20.9°C 69.4°F20.8°C 99% Calm Calm -- 29.93 in1013.5 mb 0.00 in0.0 mm 0.00 in/hr0.0 mm/hr 0.00 in0.0 mm
02:00 AM 69.8°F21.0°C 69.5°F20.8°C 99% Calm Calm -- 29.93 in1013.5 mb 0.00 in0.0 mm 0.00 in/hr0.0 mm/hr 0.00 in0.0 mm
01:55 AM 70.0°F21.1°C 69.7°F20.9°C 99% Calm Calm 0.7 mph1.1 kmh 29.93 in1013.5 mb 0.00 in0.0 mm 0.00 in/hr0.0 mm/hr 0.00 in0.0 mm
01:50 AM 70.0°F21.1°C 69.7°F20.9°C 99% Calm Calm 0.7 mph1.1 kmh 29.94 in1013.9 mb 0.00 in0.0 mm 0.00 in/hr0.0 mm/hr 0.00 in0.0 mm
01:45 AM 70.2°F21.2°C 69.9°F21.1°C 99% Calm Calm 1.6 mph2.6 kmh 29.94 in1013.9 mb 0.00 in0.0 mm 0.00 in/hr0.0 mm/hr 0.00 in0.0 mm
01:40 AM 70.3°F21.3°C 70.1°F21.2°C 99% Calm Calm 1.6 mph2.6 kmh 29.94 in1013.9 mb 0.00 in0.0 mm 0.00 in/hr0.0 mm/hr 0.00 in0.0 mm
01:35 AM 70.2°F21.2°C 69.9°F21.1°C 99% 0.7 mph SW1.1 kmh SW 1.6 mph2.6 kmh 29.94 in1013.9 mb 0.00 in0.0 mm 0.00 in/hr0.0 mm/hr 0.00 in0.0 mm
01:30 AM 70.0°F21.1°C 69.7°F20.9°C 99% 0.7 mph SW1.1 kmh SW 1.6 mph2.6 kmh 29.94 in1013.9 mb 0.00 in0.0 mm 0.00 in/hr0.0 mm/hr 0.00 in0.0 mm
01:25 AM 69.8°F21.0°C 69.5°F20.8°C 99% 0.7 mph SW1.1 kmh SW 1.6 mph2.6 kmh 29.94 in1013.9 mb 0.00 in0.0 mm 0.00 in/hr0.0 mm/hr 0.00 in0.0 mm
01:20 AM 69.8°F21.0°C 69.5°F20.8°C 99% Calm Calm 0.7 mph1.1 kmh 29.94 in1013.9 mb 0.00 in0.0 mm 0.00 in/hr0.0 mm/hr 0.00 in0.0 mm
01:15 AM 70.0°F21.1°C 69.7°F20.9°C 99% Calm Calm 0.7 mph1.1 kmh 29.94 in1013.9 mb 0.00 in0.0 mm 0.00 in/hr0.0 mm/hr 0.00 in0.0 mm
01:10 AM 70.2°F21.2°C 69.9°F21.1°C 99% Calm Calm 1.6 mph2.6 kmh 29.94 in1013.9 mb 0.00 in0.0 mm 0.00 in/hr0.0 mm/hr 0.00 in0.0 mm
01:05 AM 70.2°F21.2°C 69.9°F21.1°C 99% Calm Calm 1.6 mph2.6 kmh 29.94 in1013.9 mb 0.00 in0.0 mm 0.00 in/hr0.0 mm/hr 0.00 in0.0 mm
01:00 AM 70.2°F21.2°C 69.9°F21.1°C 99% Calm Calm 1.6 mph2.6 kmh 29.94 in1013.9 mb 0.00 in0.0 mm 0.00 in/hr0.0 mm/hr 0.00 in0.0 mm
12:55 AM 70.2°F21.2°C 69.9°F21.1°C 99% Calm Calm 0.7 mph1.1 kmh 29.94 in1013.9 mb 0.00 in0.0 mm 0.00 in/hr0.0 mm/hr 0.00 in0.0 mm
12:50 AM 70.2°F21.2°C 69.9°F21.1°C 99% Calm Calm 1.6 mph2.6 kmh 29.95 in1014.2 mb 0.00 in0.0 mm 0.00 in/hr0.0 mm/hr 0.00 in0.0 mm
12:45 AM 70.2°F21.2°C 69.9°F21.1°C 99% Calm Calm 1.6 mph2.6 kmh 29.95 in1014.2 mb 0.00 in0.0 mm 0.00 in/hr0.0 mm/hr 0.00 in0.0 mm
12:40 AM 70.5°F21.4°C 70.3°F21.3°C 99% Calm Calm 0.7 mph1.1 kmh 29.95 in1014.2 mb 0.00 in0.0 mm 0.00 in/hr0.0 mm/hr 0.00 in0.0 mm
12:35 AM 70.9°F21.6°C 70.6°F21.4°C 99% Calm Calm 0.7 mph1.1 kmh 29.95 in1014.2 mb 0.00 in0.0 mm 0.00 in/hr0.0 mm/hr 0.00 in0.0 mm
12:30 AM 71.2°F21.8°C 71.0°F21.7°C 99% Calm Calm 3.1 mph5.0 kmh 29.95 in1014.2 mb 0.00 in0.0 mm 0.00 in/hr0.0 mm/hr 0.00 in0.0 mm
12:25 AM 71.2°F21.8°C 71.0°F21.7°C 99% Calm Calm 3.1 mph5.0 kmh 29.95 in1014.2 mb 0.00 in0.0 mm 0.00 in/hr0.0 mm/hr 0.00 in0.0 mm
12:20 AM 70.9°F21.6°C 70.6°F21.4°C 99% 1.6 mph W2.6 kmh W 3.1 mph5.0 kmh 29.96 in1014.6 mb 0.00 in0.0 mm 0.00 in/hr0.0 mm/hr 0.00 in0.0 mm
12:15 AM 70.7°F21.5°C 70.4°F21.3°C 99% 0.7 mph W1.1 kmh W 1.6 mph2.6 kmh 29.96 in1014.6 mb 0.00 in0.0 mm 0.00 in/hr0.0 mm/hr 0.00 in0.0 mm
12:10 AM 71.2°F21.8°C 71.0°F21.7°C 99% Calm Calm 0.7 mph1.1 kmh 29.96 in1014.6 mb 0.00 in0.0 mm 0.00 in/hr0.0 mm/hr 0.00 in0.0 mm
12:05 AM 71.8°F22.1°C 71.5°F21.9°C 99% Calm Calm 2.2 mph3.5 kmh 29.96 in1014.6 mb 0.00 in0.0 mm 0.00 in/hr0.0 mm/hr 0.00 in0.0 mm
12:00 AM 71.8°F22.1°C 71.5°F21.9°C 99% Calm Calm 2.2 mph3.5 kmh 29.96 in1014.6 mb 0.00 in0.0 mm 0.00 in/hr0.0 mm/hr 0.00 in0.0 mm